Time;durP1;ratioP1;P1;durP2;ratioP2;P2;SDS_P1;SDS_P2;PMS_P1;PMS_P2;Temp;Humidity;BMP_temperature;BMP_pressure;BME280_temperature;BME280_humidity;BME280_pressure;Samples;Min_cycle;Max_cycle;Signal;HPM_P1;HPM_P2
2023/07/31 00:01:49;;;;;;;0.80;0.80;;;16.70;99.90;;;;;;5086471;28;20460;-80
2023/07/31 00:04:15;;;;;;;5.57;0.90;;;16.70;99.90;;;;;;5085674;28;20975;-78
2023/07/31 00:06:42;;;;;;;1.20;0.83;;;16.70;99.90;;;;;;5085860;28;20977;-79
2023/07/31 00:09:11;;;;;;;1.00;0.70;;;16.70;99.90;;;;;;5086046;28;20452;-78
2023/07/31 00:11:38;;;;;;;1.77;1.10;;;16.70;99.90;;;;;;5087082;28;20546;-79
2023/07/31 00:14:05;;;;;;;1.13;0.80;;;16.80;99.90;;;;;;5085828;28;21261;-79
2023/07/31 00:16:32;;;;;;;0.80;0.70;;;16.70;99.90;;;;;;5085510;28;21057;-79
2023/07/31 00:18:59;;;;;;;0.70;0.60;;;16.70;99.90;;;;;;5088585;28;20534;-80
2023/07/31 00:21:25;;;;;;;0.70;0.60;;;16.70;99.90;;;;;;5087864;28;20962;-81
2023/07/31 00:23:52;;;;;;;1.63;1.23;;;16.70;99.90;;;;;;5090667;28;20466;-79
2023/07/31 00:26:21;;;;;;;1.63;0.70;;;16.70;99.90;;;;;;5089462;28;20530;-78
2023/07/31 00:28:48;;;;;;;1.00;0.80;;;16.70;99.90;;;;;;5086607;28;20479;-80
2023/07/31 00:31:15;;;;;;;2.10;1.30;;;16.80;99.90;;;;;;5082973;28;20447;-78
2023/07/31 00:33:41;;;;;;;2.83;1.10;;;16.90;99.90;;;;;;5087560;28;20866;-79
2023/07/31 00:36:08;;;;;;;1.00;0.87;;;16.90;99.90;;;;;;5087702;28;20471;-79
2023/07/31 00:38:35;;;;;;;2.60;0.87;;;17.00;99.90;;;;;;5083337;28;20483;-79
2023/07/31 00:41:02;;;;;;;1.10;1.00;;;16.90;99.90;;;;;;5086484;28;20961;-78
2023/07/31 00:43:30;;;;;;;1.00;0.70;;;16.90;99.90;;;;;;5081864;28;20452;-81
2023/07/31 00:45:57;;;;;;;2.33;0.83;;;16.90;99.90;;;;;;5080540;28;20490;-78
2023/07/31 00:48:25;;;;;;;2.07;0.93;;;16.80;99.90;;;;;;5079400;28;20511;-78
2023/07/31 00:50:52;;;;;;;1.00;1.00;;;16.80;99.90;;;;;;5084944;28;20465;-78
2023/07/31 00:53:19;;;;;;;2.50;1.03;;;16.80;99.90;;;;;;5085843;28;20537;-80
2023/07/31 00:55:46;;;;;;;1.30;0.60;;;16.80;99.90;;;;;;5085253;28;20531;-80
2023/07/31 00:58:13;;;;;;;0.80;0.80;;;16.90;99.90;;;;;;5082892;28;20492;-78
2023/07/31 01:00:41;;;;;;;2.93;1.07;;;16.90;99.90;;;;;;5087154;28;20447;-80
2023/07/31 01:03:09;;;;;;;0.90;0.80;;;16.90;99.90;;;;;;5087159;28;20478;-79
2023/07/31 01:05:55;;;;;;;4.03;0.90;;;16.90;99.90;;;;;;5086180;28;20505;-78
2023/07/31 01:08:33;;;;;;;1.00;0.90;;;16.90;99.90;;;;;;5084165;28;20716;-78
2023/07/31 01:11:06;;;;;;;1.87;1.40;;;16.90;99.90;;;;;;5085995;28;21011;-78
2023/07/31 01:13:33;;;;;;;1.00;0.67;;;16.90;99.90;;;;;;5082275;28;20477;-80
2023/07/31 01:16:02;;;;;;;1.67;1.03;;;16.90;99.90;;;;;;5086248;28;20450;-78
2023/07/31 01:18:29;;;;;;;3.23;0.90;;;16.90;99.90;;;;;;5084101;28;20544;-79
2023/07/31 01:21:01;;;;;;;2.43;0.70;;;16.90;99.90;;;;;;5085532;28;20965;-81
2023/07/31 01:24:09;;;;;;;1.50;0.83;;;16.90;99.90;;;;;;5081356;28;20453;-79
2023/07/31 01:26:39;;;;;;;3.33;1.30;;;16.90;99.90;;;;;;5059840;28;20494;-81
2023/07/31 01:29:15;;;;;;;1.37;1.27;;;16.80;99.90;;;;;;5086288;28;20471;-78
2023/07/31 01:31:44;;;;;;;1.03;0.93;;;16.80;99.90;;;;;;5080547;28;20549;-79
2023/07/31 01:34:12;;;;;;;2.00;0.83;;;16.80;99.90;;;;;;5083950;28;20440;-78
2023/07/31 01:36:39;;;;;;;1.20;0.77;;;16.70;99.90;;;;;;5083545;28;21035;-80
2023/07/31 01:39:06;;;;;;;1.10;0.80;;;16.70;99.90;;;;;;5085875;28;20440;-78
2023/07/31 01:41:33;;;;;;;1.10;1.00;;;16.70;99.90;;;;;;5086466;28;20992;-78
2023/07/31 01:44:01;;;;;;;1.00;0.90;;;16.70;99.90;;;;;;5085475;28;20441;-78
2023/07/31 01:46:28;;;;;;;2.40;1.20;;;16.70;99.90;;;;;;5078543;28;20513;-78
2023/07/31 01:48:55;;;;;;;1.13;1.03;;;16.60;99.90;;;;;;5080235;28;20538;-80
2023/07/31 01:51:22;;;;;;;2.60;1.00;;;16.60;99.90;;;;;;5084168;28;21036;-78
2023/07/31 01:53:49;;;;;;;1.93;0.97;;;16.50;99.90;;;;;;5084601;28;20471;-78
2023/07/31 01:56:16;;;;;;;2.87;1.27;;;16.50;99.90;;;;;;5084585;28;20463;-79
2023/07/31 01:58:43;;;;;;;2.57;0.80;;;16.50;99.90;;;;;;5086261;28;20485;-78
2023/07/31 02:01:11;;;;;;;0.60;0.50;;;16.50;99.90;;;;;;5085875;28;20518;-80
2023/07/31 02:03:38;;;;;;;3.30;1.27;;;16.50;99.90;;;;;;5085411;28;20484;-80
2023/07/31 02:06:05;;;;;;;4.53;1.07;;;16.50;99.90;;;;;;5085533;28;20478;-78
2023/07/31 02:08:32;;;;;;;2.47;0.97;;;16.40;99.90;;;;;;5081526;28;20471;-78
2023/07/31 02:10:59;;;;;;;1.40;0.60;;;16.40;99.90;;;;;;5084591;28;20436;-78
2023/07/31 02:13:26;;;;;;;1.00;0.80;;;16.40;99.90;;;;;;5086585;28;20456;-78
2023/07/31 02:15:53;;;;;;;1.07;0.87;;;16.50;99.90;;;;;;5084407;28;20466;-79
2023/07/31 02:18:22;;;;;;;1.57;0.67;;;16.50;99.90;;;;;;5085261;28;20480;-79
2023/07/31 02:20:50;;;;;;;1.33;0.70;;;16.50;99.90;;;;;;5084118;28;20491;-78
2023/07/31 02:23:18;;;;;;;5.00;1.40;;;16.50;99.90;;;;;;5085645;28;20504;-78
2023/07/31 02:25:45;;;;;;;1.57;0.97;;;16.50;99.90;;;;;;5084917;28;20465;-78
2023/07/31 02:28:12;;;;;;;1.80;0.70;;;16.50;99.90;;;;;;5084718;28;21017;-77
2023/07/31 02:30:39;;;;;;;1.73;0.77;;;16.40;99.90;;;;;;5085738;28;20448;-80
2023/07/31 02:33:06;;;;;;;0.70;0.57;;;16.40;99.90;;;;;;5082538;28;20502;-78
2023/07/31 02:35:35;;;;;;;2.27;0.70;;;16.40;99.90;;;;;;5083989;28;20898;-80
2023/07/31 02:38:02;;;;;;;1.50;0.80;;;16.30;99.90;;;;;;5083209;28;20621;-78
2023/07/31 02:40:29;;;;;;;2.70;0.90;;;16.30;99.90;;;;;;5086392;28;20510;-80
2023/07/31 02:42:56;;;;;;;4.50;1.07;;;16.30;99.90;;;;;;5084261;28;20520;-78
2023/07/31 02:45:23;;;;;;;2.07;1.10;;;16.20;99.90;;;;;;5084452;28;20528;-80
2023/07/31 02:47:50;;;;;;;4.30;0.80;;;16.20;99.90;;;;;;5081317;28;20483;-78
2023/07/31 02:50:17;;;;;;;0.90;0.70;;;16.20;99.90;;;;;;5084294;28;20502;-80
2023/07/31 02:52:45;;;;;;;2.07;1.47;;;16.10;99.90;;;;;;5083534;28;20838;-80
2023/07/31 02:55:12;;;;;;;1.07;0.63;;;15.90;99.90;;;;;;5083486;28;20936;-79
2023/07/31 02:57:39;;;;;;;1.00;0.70;;;15.90;99.90;;;;;;5085081;28;20514;-79
2023/07/31 03:00:07;;;;;;;6.40;1.30;;;15.70;99.90;;;;;;5084662;28;20521;-78
2023/07/31 03:02:35;;;;;;;0.93;0.60;;;15.70;99.90;;;;;;5085575;28;20452;-79
2023/07/31 03:05:02;;;;;;;0.80;0.50;;;15.70;99.90;;;;;;5088235;28;20443;-79
2023/07/31 03:07:30;;;;;;;0.80;0.70;;;15.50;99.90;;;;;;5083446;28;20474;-79
2023/07/31 03:09:58;;;;;;;2.93;0.60;;;15.50;99.90;;;;;;5083144;28;20891;-79
2023/07/31 03:12:25;;;;;;;0.97;0.70;;;15.40;99.90;;;;;;5085286;28;20448;-79
2023/07/31 03:14:52;;;;;;;2.40;0.93;;;15.30;99.90;;;;;;5084353;28;20473;-79
2023/07/31 03:17:19;;;;;;;1.90;0.60;;;15.40;99.90;;;;;;5083263;28;20568;-80
2023/07/31 03:19:46;;;;;;;1.10;0.67;;;15.30;99.90;;;;;;5085224;28;20447;-80
2023/07/31 03:22:13;;;;;;;3.60;1.00;;;15.30;99.90;;;;;;5084721;28;20444;-79
2023/07/31 03:24:40;;;;;;;1.27;0.77;;;15.20;99.90;;;;;;5085247;28;20471;-80
2023/07/31 03:27:08;;;;;;;2.20;1.00;;;15.20;99.90;;;;;;5083364;28;21023;-79
2023/07/31 03:29:35;;;;;;;3.23;0.80;;;15.20;99.90;;;;;;5085499;28;20483;-79
2023/07/31 03:32:02;;;;;;;1.47;1.33;;;15.10;99.90;;;;;;5081811;28;20860;-81
2023/07/31 03:34:29;;;;;;;3.37;1.07;;;15.10;99.90;;;;;;5080515;28;20489;-80
2023/07/31 03:36:56;;;;;;;2.43;0.80;;;15.10;99.90;;;;;;5080537;28;20444;-81
2023/07/31 03:39:23;;;;;;;1.30;0.90;;;15.10;99.90;;;;;;5084907;28;20483;-80
2023/07/31 03:41:50;;;;;;;1.07;0.80;;;15.00;99.90;;;;;;5080151;28;20938;-79
2023/07/31 03:44:18;;;;;;;5.67;1.20;;;15.00;99.90;;;;;;5083497;28;20498;-78
2023/07/31 03:46:45;;;;;;;1.30;0.70;;;15.00;99.90;;;;;;5079904;28;20517;-81
2023/07/31 03:49:12;;;;;;;2.03;0.97;;;14.90;99.90;;;;;;5082863;28;20443;-80
2023/07/31 03:51:39;;;;;;;1.67;0.67;;;14.80;99.90;;;;;;5083733;28;20985;-78
2023/07/31 03:54:07;;;;;;;5.07;0.53;;;14.70;99.90;;;;;;5084802;28;20493;-79
2023/07/31 03:56:34;;;;;;;7.90;0.60;;;14.70;99.90;;;;;;5082524;28;20467;-79
2023/07/31 03:59:01;;;;;;;3.43;0.80;;;14.60;99.90;;;;;;5085574;28;20475;-78
2023/07/31 04:01:30;;;;;;;0.80;0.80;;;14.60;99.90;;;;;;5084891;28;20450;-79
2023/07/31 04:03:57;;;;;;;1.47;1.00;;;14.60;99.90;;;;;;5085241;28;21000;-80
2023/07/31 04:06:23;;;;;;;1.60;0.60;;;14.60;99.90;;;;;;5087352;28;20930;-79
2023/07/31 04:08:50;;;;;;;0.93;0.93;;;14.60;99.90;;;;;;5087654;28;20523;-78
2023/07/31 04:11:17;;;;;;;2.03;0.57;;;14.60;99.90;;;;;;5084883;28;20535;-79
2023/07/31 04:13:44;;;;;;;1.07;0.87;;;14.70;99.90;;;;;;5077522;28;20460;-80
2023/07/31 04:16:11;;;;;;;1.50;1.00;;;14.70;99.90;;;;;;5087065;28;20997;-81
2023/07/31 04:18:40;;;;;;;1.60;0.80;;;14.80;99.90;;;;;;5085615;28;20478;-80
2023/07/31 04:21:07;;;;;;;1.93;0.83;;;14.80;99.90;;;;;;5088215;28;20443;-79
2023/07/31 04:23:34;;;;;;;2.00;1.13;;;14.90;99.90;;;;;;5087690;28;20497;-79
2023/07/31 04:26:01;;;;;;;1.23;0.60;;;14.90;99.90;;;;;;5085028;28;20507;-79
2023/07/31 04:28:28;;;;;;;1.20;1.10;;;14.80;99.90;;;;;;5086390;28;20471;-79
2023/07/31 04:30:55;;;;;;;0.70;0.60;;;14.80;99.90;;;;;;5086411;28;20459;-80
2023/07/31 04:33:22;;;;;;;1.50;1.20;;;14.80;99.90;;;;;;5078693;28;20555;-79
2023/07/31 04:35:54;;;;;;;0.70;0.60;;;14.80;99.90;;;;;;5084737;28;20990;-82
2023/07/31 04:38:21;;;;;;;1.43;0.70;;;14.80;99.90;;;;;;5085225;28;20591;-79
2023/07/31 04:40:48;;;;;;;3.73;3.20;;;14.80;99.90;;;;;;5085581;28;20489;-79
2023/07/31 04:43:15;;;;;;;2.97;0.83;;;14.80;99.90;;;;;;5084393;28;21010;-79
2023/07/31 04:45:44;;;;;;;1.27;0.67;;;14.80;99.90;;;;;;5083922;28;20460;-77
2023/07/31 04:48:10;;;;;;;1.70;1.10;;;14.80;99.90;;;;;;5082677;28;20599;-79
2023/07/31 04:50:37;;;;;;;1.23;0.70;;;14.80;99.90;;;;;;5083381;28;20982;-79
2023/07/31 04:53:06;;;;;;;1.53;0.80;;;14.80;99.90;;;;;;5085795;28;20456;-82
2023/07/31 04:55:33;;;;;;;1.23;0.70;;;14.70;99.90;;;;;;5083276;28;20538;-83
2023/07/31 04:58:01;;;;;;;0.93;0.60;;;14.80;99.90;;;;;;5085392;28;20460;-81
2023/07/31 05:00:28;;;;;;;1.60;0.80;;;14.80;99.90;;;;;;5081027;28;20450;-78
2023/07/31 05:02:54;;;;;;;0.87;0.60;;;14.80;99.90;;;;;;5081333;28;20551;-80
2023/07/31 05:05:21;;;;;;;1.27;0.50;;;14.80;99.90;;;;;;5082186;28;21171;-78
2023/07/31 05:07:48;;;;;;;2.50;0.63;;;14.80;99.90;;;;;;5079713;28;20595;-80
2023/07/31 05:10:17;;;;;;;1.60;0.90;;;14.80;99.90;;;;;;5081395;28;20512;-80
2023/07/31 05:12:44;;;;;;;1.20;0.90;;;14.80;99.90;;;;;;5084020;28;20459;-79
2023/07/31 05:15:11;;;;;;;0.83;0.70;;;14.80;99.90;;;;;;5081064;28;20602;-79
2023/07/31 05:17:38;;;;;;;2.80;1.33;;;14.90;99.90;;;;;;5080467;28;20467;-80
2023/07/31 05:20:06;;;;;;;2.30;0.60;;;15.00;99.90;;;;;;5079312;28;20569;-78
2023/07/31 05:22:33;;;;;;;0.90;0.60;;;15.20;99.90;;;;;;5083040;28;20440;-80
2023/07/31 05:25:00;;;;;;;3.43;0.67;;;15.20;99.90;;;;;;5081090;28;20456;-79
2023/07/31 05:27:28;;;;;;;1.47;0.70;;;15.40;99.90;;;;;;5079271;28;21112;-79
2023/07/31 05:29:55;;;;;;;1.10;0.67;;;15.40;99.90;;;;;;5079035;28;20468;-81
2023/07/31 05:32:22;;;;;;;1.63;0.70;;;15.40;99.90;;;;;;5079684;28;20510;-80
2023/07/31 05:34:51;;;;;;;1.07;0.70;;;15.40;99.90;;;;;;5076151;28;20437;-79
2023/07/31 05:37:18;;;;;;;2.40;0.80;;;15.50;99.90;;;;;;5082740;28;21970;-81
2023/07/31 05:39:45;;;;;;;1.00;0.70;;;15.60;99.90;;;;;;5084186;28;21017;-80
2023/07/31 05:42:12;;;;;;;2.17;0.77;;;15.60;99.90;;;;;;5079520;28;20525;-80
2023/07/31 05:44:40;;;;;;;2.20;0.73;;;15.70;99.90;;;;;;5082264;28;21057;-79
2023/07/31 05:47:07;;;;;;;1.67;0.70;;;15.80;99.90;;;;;;5081227;28;20455;-80
2023/07/31 05:49:35;;;;;;;0.73;0.73;;;15.90;99.90;;;;;;5084169;28;20525;-80
2023/07/31 05:52:01;;;;;;;1.90;0.73;;;15.90;99.90;;;;;;5081941;28;20460;-83
2023/07/31 05:54:28;;;;;;;1.10;0.80;;;16.00;99.90;;;;;;5083625;28;20502;-81
2023/07/31 05:56:55;;;;;;;1.13;0.80;;;16.30;99.90;;;;;;5084494;28;20459;-82
2023/07/31 05:59:22;;;;;;;2.33;0.80;;;16.60;99.90;;;;;;5080078;28;20488;-81
2023/07/31 06:01:50;;;;;;;1.00;0.70;;;17.00;99.90;;;;;;5080901;28;20447;-80
2023/07/31 06:04:17;;;;;;;2.83;0.80;;;17.30;99.90;;;;;;5082460;28;20519;-81
2023/07/31 06:06:44;;;;;;;1.20;0.50;;;17.70;99.90;;;;;;5084472;28;20445;-82
2023/07/31 06:09:11;;;;;;;0.80;0.63;;;17.90;99.90;;;;;;5082477;28;20491;-80
2023/07/31 06:11:38;;;;;;;2.50;1.20;;;18.00;99.90;;;;;;5078378;28;20475;-79
2023/07/31 06:14:05;;;;;;;1.10;0.60;;;18.10;99.90;;;;;;5082714;28;20507;-79
2023/07/31 06:16:32;;;;;;;2.37;0.70;;;18.30;99.90;;;;;;5078709;28;20576;-82
2023/07/31 06:19:01;;;;;;;1.13;0.80;;;18.40;99.90;;;;;;5084549;28;20548;-80
2023/07/31 06:21:28;;;;;;;1.17;0.60;;;18.50;99.90;;;;;;5081573;28;20465;-80
2023/07/31 06:23:54;;;;;;;3.00;0.90;;;18.70;99.90;;;;;;5082704;28;20451;-80
2023/07/31 06:26:22;;;;;;;2.53;0.63;;;18.80;99.90;;;;;;5080254;28;21144;-81
2023/07/31 06:28:48;;;;;;;0.70;0.50;;;19.00;99.90;;;;;;5079673;28;21029;-79
2023/07/31 06:31:15;;;;;;;2.23;0.70;;;18.80;99.90;;;;;;5080119;28;20446;-81
2023/07/31 06:33:42;;;;;;;0.90;0.60;;;18.80;99.90;;;;;;5079310;28;20440;-83
2023/07/31 06:36:11;;;;;;;0.80;0.50;;;19.00;99.90;;;;;;5076707;28;20493;-81
2023/07/31 06:38:38;;;;;;;1.73;0.57;;;19.20;99.90;;;;;;5079105;28;20997;-81
2023/07/31 06:41:05;;;;;;;8.40;1.20;;;19.40;99.90;;;;;;5080137;28;20593;-80
2023/07/31 06:43:32;;;;;;;2.37;0.60;;;19.60;99.90;;;;;;5081759;28;20440;-80
2023/07/31 06:46:05;;;;;;;3.30;0.63;;;19.60;99.90;;;;;;5076993;28;20555;-82
2023/07/31 06:48:32;;;;;;;4.57;0.60;;;19.70;99.90;;;;;;5082556;28;20444;-83
2023/07/31 06:50:58;;;;;;;1.17;0.60;;;19.90;99.90;;;;;;5085034;28;20487;-82
2023/07/31 06:53:27;;;;;;;0.70;0.50;;;20.10;99.90;;;;;;5085640;28;20476;-84
2023/07/31 06:55:54;;;;;;;2.47;0.70;;;20.10;99.90;;;;;;5085978;28;20439;-82
2023/07/31 06:58:21;;;;;;;0.70;0.50;;;19.90;99.90;;;;;;5084958;28;20462;-81
2023/07/31 07:00:49;;;;;;;4.20;1.13;;;19.90;99.90;;;;;;5086004;28;20455;-83
2023/07/31 07:03:18;;;;;;;0.80;0.50;;;20.00;99.90;;;;;;5084440;28;20482;-83
2023/07/31 07:05:45;;;;;;;4.73;0.80;;;20.10;99.90;;;;;;5085588;28;21011;-79
2023/07/31 07:08:12;;;;;;;2.87;2.70;;;20.40;99.90;;;;;;5085905;28;20448;-83
2023/07/31 07:10:40;;;;;;;2.20;0.50;;;20.60;99.90;;;;;;5085329;28;20528;-82
2023/07/31 07:13:07;;;;;;;2.90;0.80;;;20.60;99.90;;;;;;5086061;28;20501;-83
2023/07/31 07:15:34;;;;;;;0.67;0.53;;;20.70;99.90;;;;;;5080019;28;20462;-80
2023/07/31 07:18:01;;;;;;;0.60;0.57;;;20.80;99.90;;;;;;5078782;28;20855;-82
2023/07/31 07:20:30;;;;;;;2.20;0.50;;;20.90;99.90;;;;;;5082250;28;20495;-82
2023/07/31 07:22:57;;;;;;;1.23;0.50;;;21.00;99.90;;;;;;5075665;28;20525;-80
2023/07/31 07:25:23;;;;;;;1.17;0.57;;;21.10;99.90;;;;;;5075953;28;21203;-82
2023/07/31 07:27:52;;;;;;;0.63;0.60;;;21.20;99.90;;;;;;5075906;28;20555;-82
2023/07/31 07:30:19;;;;;;;2.10;0.60;;;21.40;99.90;;;;;;5080009;28;20504;-81
2023/07/31 07:32:46;;;;;;;1.50;1.27;;;21.70;99.90;;;;;;5079888;28;20515;-82
2023/07/31 07:35:13;;;;;;;0.63;0.50;;;21.70;98.70;;;;;;5074566;28;20884;-84
2023/07/31 07:37:40;;;;;;;2.20;0.50;;;22.00;98.90;;;;;;5082842;28;20448;-80
2023/07/31 07:40:09;;;;;;;1.93;0.50;;;22.10;97.10;;;;;;5081351;28;20514;-81
2023/07/31 07:42:36;;;;;;;1.43;0.70;;;21.90;95.90;;;;;;5084703;28;20495;-80
2023/07/31 07:45:05;;;;;;;2.20;0.60;;;21.90;98.40;;;;;;5082269;28;21138;-80
2023/07/31 07:47:32;;;;;;;1.73;0.77;;;21.60;97.10;;;;;;5077364;28;20528;-81
2023/07/31 07:49:59;;;;;;;2.93;0.50;;;21.30;96.40;;;;;;5080295;28;20586;-82
2023/07/31 07:52:26;;;;;;;5.80;0.90;;;21.40;97.10;;;;;;5080686;28;20525;-76
2023/07/31 07:54:52;;;;;;;1.00;0.53;;;21.30;98.30;;;;;;5082813;28;20447;-77
2023/07/31 07:57:19;;;;;;;1.00;0.50;;;21.30;98.50;;;;;;5085069;28;21031;-78
2023/07/31 07:59:46;;;;;;;4.83;0.90;;;21.30;98.00;;;;;;5080635;28;20515;-78
2023/07/31 08:02:15;;;;;;;1.13;0.60;;;21.50;96.50;;;;;;5085955;28;20443;-78
2023/07/31 08:04:41;;;;;;;2.60;0.60;;;21.50;98.40;;;;;;5082271;28;20471;-79
2023/07/31 08:07:08;;;;;;;0.70;0.50;;;21.40;97.60;;;;;;5082974;28;20506;-78
2023/07/31 08:09:35;;;;;;;1.57;0.60;;;21.40;97.20;;;;;;5086836;28;20512;-78
2023/07/31 08:12:03;;;;;;;1.60;0.60;;;21.60;98.80;;;;;;5086006;28;21393;-78
2023/07/31 08:14:30;;;;;;;1.50;0.60;;;21.50;98.90;;;;;;5082464;28;20462;-81
2023/07/31 08:16:57;;;;;;;1.27;0.80;;;21.70;97.70;;;;;;5084772;28;20471;-78
2023/07/31 08:19:26;;;;;;;0.60;0.50;;;22.00;98.10;;;;;;5083658;28;20487;-78
2023/07/31 08:21:53;;;;;;;1.07;0.50;;;22.50;95.70;;;;;;5086458;28;20459;-78
2023/07/31 08:24:19;;;;;;;0.97;0.60;;;22.60;94.10;;;;;;5079873;28;20836;-78
2023/07/31 08:26:48;;;;;;;1.57;0.50;;;22.60;95.10;;;;;;5080776;28;21185;-78
2023/07/31 08:29:15;;;;;;;0.60;0.50;;;22.60;94.60;;;;;;5085688;28;20486;-79
2023/07/31 08:31:42;;;;;;;0.70;0.47;;;22.70;94.40;;;;;;5081563;28;20444;-80
2023/07/31 08:34:09;;;;;;;2.00;0.60;;;22.60;93.50;;;;;;5083313;28;20463;-79
2023/07/31 08:36:37;;;;;;;1.03;0.40;;;22.80;95.70;;;;;;5086654;28;20447;-78
2023/07/31 08:39:04;;;;;;;0.80;0.60;;;22.80;94.40;;;;;;5085262;28;20443;-81
2023/07/31 08:41:31;;;;;;;1.53;0.50;;;22.60;94.20;;;;;;5087369;28;20469;-77
2023/07/31 08:43:59;;;;;;;5.30;0.60;;;22.40;93.60;;;;;;5084629;28;20447;-80
2023/07/31 08:46:26;;;;;;;2.17;0.80;;;22.20;96.00;;;;;;5082748;28;20521;-79
2023/07/31 08:48:54;;;;;;;1.33;0.50;;;22.40;94.90;;;;;;5086321;28;20539;-78
2023/07/31 08:51:21;;;;;;;0.70;0.50;;;22.60;93.70;;;;;;5084528;28;20484;-79
2023/07/31 08:53:50;;;;;;;2.10;0.60;;;22.60;93.30;;;;;;5087231;28;20532;-78
2023/07/31 08:56:17;;;;;;;1.70;0.60;;;22.70;92.40;;;;;;5084371;28;20444;-78
2023/07/31 08:58:46;;;;;;;1.10;0.70;;;22.90;94.20;;;;;;5084077;28;20459;-78
2023/07/31 09:01:14;;;;;;;1.27;0.50;;;23.40;95.10;;;;;;5086526;28;20488;-79
2023/07/31 09:03:42;;;;;;;0.60;0.50;;;23.80;95.90;;;;;;5086569;28;20507;-79
2023/07/31 09:06:10;;;;;;;1.27;0.50;;;24.30;92.20;;;;;;5085319;28;21280;-78
2023/07/31 09:08:42;;;;;;;1.47;0.40;;;24.50;93.60;;;;;;5078958;28;20460;-78
2023/07/31 09:11:11;;;;;;;1.93;0.60;;;24.20;92.20;;;;;;5083135;28;20906;-79
2023/07/31 09:13:40;;;;;;;1.00;0.50;;;24.00;91.30;;;;;;5083381;28;21133;-81
2023/07/31 09:16:09;;;;;;;0.70;0.63;;;23.40;91.50;;;;;;5084489;28;20487;-80
2023/07/31 09:18:54;;;;;;;0.60;0.50;;;23.80;93.30;;;;;;5081759;28;20457;-78
2023/07/31 09:21:21;;;;;;;1.70;0.50;;;24.10;93.70;;;;;;5081628;28;21262;-79
2023/07/31 09:23:48;;;;;;;0.80;0.60;;;24.00;91.90;;;;;;5086198;28;20449;-78
2023/07/31 09:26:32;;;;;;;0.60;0.50;;;24.00;93.50;;;;;;5085363;28;20504;-78
2023/07/31 09:29:00;;;;;;;3.03;0.50;;;24.00;87.90;;;;;;5080028;28;20477;-77
2023/07/31 09:31:34;;;;;;;2.47;0.67;;;24.00;91.60;;;;;;5083360;28;20511;-76
2023/07/31 09:34:01;;;;;;;1.77;0.80;;;23.80;92.00;;;;;;5080686;28;20466;-79
2023/07/31 09:36:31;;;;;;;1.67;0.63;;;23.60;91.80;;;;;;5082406;28;20528;-80
2023/07/31 09:39:03;;;;;;;1.07;0.50;;;23.20;86.40;;;;;;5078852;28;20460;-80
2023/07/31 09:41:32;;;;;;;1.17;0.60;;;23.20;88.50;;;;;;5078691;28;20482;-77
2023/07/31 09:43:59;;;;;;;4.50;1.23;;;23.50;91.00;;;;;;5082805;28;20457;-77
2023/07/31 09:46:28;;;;;;;1.43;0.60;;;23.40;89.50;;;;;;5081623;28;20491;-79
2023/07/31 09:49:08;;;;;;;0.70;0.50;;;23.10;91.10;;;;;;5086339;28;20946;-78
2023/07/31 09:51:38;;;;;;;0.70;0.60;;;22.90;91.70;;;;;;5080715;28;20459;-77
2023/07/31 09:54:12;;;;;;;0.90;0.50;;;23.10;92.10;;;;;;5085236;28;20949;-77
2023/07/31 09:56:45;;;;;;;0.60;0.43;;;23.10;92.40;;;;;;5083025;28;20490;-78
2023/07/31 09:59:13;;;;;;;7.67;0.70;;;23.50;92.10;;;;;;5080657;28;20498;-79
2023/07/31 10:01:42;;;;;;;0.90;0.50;;;23.90;92.20;;;;;;5083142;28;21252;-79
2023/07/31 10:04:10;;;;;;;0.77;0.50;;;24.00;90.00;;;;;;5081679;28;20526;-77
2023/07/31 10:06:38;;;;;;;1.50;1.40;;;24.10;88.70;;;;;;5080955;28;21118;-80
2023/07/31 10:09:07;;;;;;;1.60;0.50;;;24.00;90.40;;;;;;5083849;28;20446;-80
2023/07/31 10:11:38;;;;;;;2.33;0.67;;;23.60;91.00;;;;;;5082952;28;20480;-78
2023/07/31 10:14:08;;;;;;;0.60;0.47;;;23.40;90.70;;;;;;5083874;28;21039;-78
2023/07/31 10:16:36;;;;;;;2.50;0.60;;;23.60;91.60;;;;;;5074791;28;20471;-76
2023/07/31 10:19:03;;;;;;;1.67;0.50;;;23.90;91.20;;;;;;5084286;28;20469;-77
2023/07/31 10:21:34;;;;;;;1.37;0.70;;;23.90;90.00;;;;;;5077466;28;20515;-77
2023/07/31 10:24:04;;;;;;;3.33;1.63;;;23.70;88.40;;;;;;5082437;28;20451;-78
2023/07/31 10:26:32;;;;;;;0.80;0.80;;;23.70;92.10;;;;;;5079994;28;20502;-78
2023/07/31 10:28:59;;;;;;;0.70;0.57;;;23.60;90.80;;;;;;5080230;28;21182;-80
2023/07/31 10:31:28;;;;;;;1.30;0.53;;;23.70;91.40;;;;;;5080138;28;20488;-78
2023/07/31 10:33:57;;;;;;;0.90;0.57;;;23.70;91.20;;;;;;5081936;28;21082;-80
2023/07/31 10:36:25;;;;;;;5.50;1.30;;;23.70;91.90;;;;;;5081310;28;20518;-77
2023/07/31 10:38:52;;;;;;;2.47;0.60;;;24.10;93.50;;;;;;5078215;28;20460;-78
2023/07/31 10:41:19;;;;;;;1.73;0.60;;;24.20;91.90;;;;;;5073686;28;21066;-77
2023/07/31 10:43:47;;;;;;;1.10;0.60;;;24.00;86.90;;;;;;5079804;28;20465;-79
2023/07/31 10:46:15;;;;;;;1.03;0.50;;;24.20;90.00;;;;;;5074524;28;21158;-78
2023/07/31 10:48:43;;;;;;;2.33;0.80;;;24.30;89.00;;;;;;5076688;28;20470;-77
2023/07/31 10:51:12;;;;;;;1.20;0.83;;;24.30;90.10;;;;;;5075458;28;20441;-77
2023/07/31 10:53:41;;;;;;;0.80;0.60;;;24.40;91.90;;;;;;5083665;28;20444;-77
2023/07/31 10:56:09;;;;;;;0.97;0.50;;;24.20;92.00;;;;;;5078082;28;20860;-77
2023/07/31 10:58:37;;;;;;;1.30;0.70;;;23.70;88.60;;;;;;5083724;28;20456;-78
2023/07/31 11:01:05;;;;;;;0.60;0.53;;;24.00;90.20;;;;;;5083762;28;20482;-77
2023/07/31 11:03:45;;;;;;;1.43;0.70;;;24.40;90.40;;;;;;5081986;28;20446;-78
2023/07/31 11:06:13;;;;;;;1.00;0.60;;;24.80;86.50;;;;;;5082555;28;20496;-78
2023/07/31 11:08:44;;;;;;;0.80;0.60;;;24.80;89.10;;;;;;5083855;28;20482;-79
2023/07/31 11:11:13;;;;;;;0.80;0.60;;;25.30;87.30;;;;;;5081089;28;20479;-78
2023/07/31 11:13:46;;;;;;;1.07;0.70;;;25.50;85.40;;;;;;5084702;28;20511;-78
2023/07/31 11:16:14;;;;;;;1.50;0.60;;;25.40;79.30;;;;;;5087141;28;20442;-78
2023/07/31 11:18:43;;;;;;;1.10;0.70;;;25.10;85.30;;;;;;5083630;28;20557;-77
2023/07/31 11:21:13;;;;;;;1.00;0.60;;;25.00;82.70;;;;;;5082034;28;20523;-80
2023/07/31 11:23:40;;;;;;;1.00;0.63;;;25.00;85.60;;;;;;5086247;28;20454;-77
2023/07/31 11:26:08;;;;;;;1.13;0.60;;;24.90;83.70;;;;;;5084638;28;20922;-78
2023/07/31 11:28:35;;;;;;;0.70;0.50;;;25.00;83.50;;;;;;5083996;28;20471;-77
2023/07/31 11:31:03;;;;;;;0.70;0.70;;;24.80;82.70;;;;;;5087562;28;20465;-78
2023/07/31 11:33:30;;;;;;;1.20;0.80;;;24.50;82.10;;;;;;5080986;28;20958;-77
2023/07/31 11:35:59;;;;;;;1.10;0.70;;;24.30;83.20;;;;;;5086494;28;20892;-78
2023/07/31 11:38:27;;;;;;;1.53;0.60;;;24.50;84.70;;;;;;5079456;28;20454;-78
2023/07/31 11:40:55;;;;;;;1.03;0.90;;;24.90;82.50;;;;;;5084965;28;20534;-78
2023/07/31 11:43:23;;;;;;;0.60;0.50;;;25.00;79.90;;;;;;5079613;28;21040;-77
2023/07/31 11:45:51;;;;;;;0.97;0.53;;;25.20;81.90;;;;;;5083077;28;20447;-78
2023/07/31 11:48:22;;;;;;;1.40;0.77;;;25.40;85.80;;;;;;5087891;28;21512;-78
2023/07/31 11:50:50;;;;;;;1.97;0.70;;;25.60;81.50;;;;;;5084493;28;20434;-80
2023/07/31 11:53:22;;;;;;;2.07;0.50;;;25.50;83.80;;;;;;5085189;28;20471;-78
2023/07/31 11:55:50;;;;;;;0.77;0.67;;;25.50;86.60;;;;;;5080461;28;20467;-76
2023/07/31 11:58:18;;;;;;;1.47;0.60;;;25.50;83.80;;;;;;5086014;28;20474;-80
2023/07/31 12:00:46;;;;;;;1.70;0.90;;;25.20;82.00;;;;;;5082303;28;20471;-78
2023/07/31 12:03:13;;;;;;;1.50;0.60;;;25.50;84.40;;;;;;5083603;28;20474;-77
2023/07/31 12:05:40;;;;;;;2.73;0.50;;;25.50;80.40;;;;;;5077502;28;21058;-79
2023/07/31 12:08:12;;;;;;;3.03;0.80;;;25.20;82.50;;;;;;5084035;28;20526;-78
2023/07/31 12:10:40;;;;;;;0.90;0.60;;;25.90;77.80;;;;;;5083105;28;20498;-77
2023/07/31 12:13:13;;;;;;;1.83;0.80;;;25.90;83.70;;;;;;5078754;28;20549;-80
2023/07/31 12:15:42;;;;;;;0.70;0.57;;;26.00;80.00;;;;;;5085777;28;21194;-78
2023/07/31 12:18:11;;;;;;;1.27;1.00;;;25.60;79.30;;;;;;5085670;28;20486;-77
2023/07/31 12:20:42;;;;;;;1.27;0.60;;;25.30;81.30;;;;;;5081907;28;20518;-77
2023/07/31 12:23:15;;;;;;;0.50;0.50;;;24.60;83.10;;;;;;5080402;28;20443;-77
2023/07/31 12:25:43;;;;;;;0.67;0.67;;;25.00;83.30;;;;;;5084374;28;20565;-77
2023/07/31 12:28:12;;;;;;;1.03;0.83;;;25.60;88.50;;;;;;5084176;28;20514;-77
2023/07/31 12:30:40;;;;;;;0.80;0.80;;;25.90;81.60;;;;;;5080511;28;20480;-77
2023/07/31 12:33:08;;;;;;;1.57;1.03;;;25.60;79.50;;;;;;5086793;28;20489;-80
2023/07/31 12:35:41;;;;;;;1.33;0.60;;;25.60;82.70;;;;;;5080020;28;20468;-77
2023/07/31 12:38:08;;;;;;;0.70;0.70;;;25.60;82.70;;;;;;5080438;28;20471;-77
2023/07/31 12:40:38;;;;;;;1.00;0.70;;;26.00;80.30;;;;;;5077298;28;20523;-79
2023/07/31 12:43:06;;;;;;;0.80;0.70;;;26.20;81.20;;;;;;5086295;28;20459;-78
2023/07/31 12:45:34;;;;;;;1.70;0.70;;;26.00;81.80;;;;;;5080266;28;21007;-79
2023/07/31 12:48:01;;;;;;;1.10;0.53;;;26.00;84.80;;;;;;5080700;28;20966;-78
2023/07/31 12:50:29;;;;;;;2.47;1.10;;;26.20;87.10;;;;;;5084832;28;21162;-79
2023/07/31 12:52:56;;;;;;;1.60;1.47;;;26.60;78.40;;;;;;5077451;28;20476;-77